createdAt,value
2018-12-16T00:00:36.911Z,27.83
2018-12-16T00:03:04.366Z,14.10
2018-12-16T00:05:31.899Z,21.90
2018-12-16T00:07:59.358Z,21.80
2018-12-16T00:10:26.846Z,19.40
2018-12-16T00:12:54.302Z,18.50
2018-12-16T00:15:21.818Z,11.20
2018-12-16T00:17:49.303Z,23.70
2018-12-16T00:20:16.841Z,22.27
2018-12-16T00:22:44.382Z,18.77
2018-12-16T00:25:11.891Z,23.47
2018-12-16T00:27:39.371Z,18.87
2018-12-16T00:30:06.952Z,18.70
2018-12-16T00:32:34.477Z,12.77
2018-12-16T00:35:01.928Z,28.23
2018-12-16T00:37:29.409Z,22.20
2018-12-16T00:39:56.873Z,17.63
2018-12-16T00:42:24.459Z,24.43
2018-12-16T00:44:51.939Z,12.33
2018-12-16T00:47:19.507Z,12.50
2018-12-16T00:49:46.967Z,20.43
2018-12-16T00:52:14.449Z,27.53
2018-12-16T00:54:42.013Z,22.40
2018-12-16T00:57:09.483Z,25.60
2018-12-16T00:59:36.944Z,16.60
2018-12-16T01:02:06.425Z,18.33
2018-12-16T01:04:33.919Z,27.33
2018-12-16T01:07:01.459Z,24.13
2018-12-16T01:09:28.963Z,15.03
2018-12-16T01:11:56.419Z,25.63
2018-12-16T01:14:23.869Z,25.43
2018-12-16T01:16:51.351Z,26.00
2018-12-16T01:19:18.866Z,16.50
2018-12-16T01:21:46.318Z,18.00
2018-12-16T01:24:13.889Z,11.77
2018-12-16T01:26:41.366Z,12.33
2018-12-16T01:29:08.890Z,28.30
2018-12-16T01:31:36.397Z,26.43
2018-12-16T01:34:03.837Z,28.00
2018-12-16T01:36:31.325Z,23.37
2018-12-16T01:38:58.770Z,20.77
2018-12-16T01:41:26.237Z,23.57
2018-12-16T01:43:53.757Z,32.53
2018-12-16T01:46:21.228Z,28.47
2018-12-16T01:48:48.735Z,24.73
2018-12-16T01:51:16.237Z,33.33
2018-12-16T01:53:43.695Z,31.30
2018-12-16T01:56:11.171Z,34.90
2018-12-16T01:58:38.617Z,32.30
2018-12-16T02:01:06.337Z,14.50
2018-12-16T02:03:34.053Z,26.97
2018-12-16T02:06:01.495Z,24.80
2018-12-16T02:08:29.086Z,18.10
2018-12-16T02:10:56.566Z,22.03
2018-12-16T02:13:24.026Z,17.43
2018-12-16T02:15:52.561Z,23.97
2018-12-16T02:18:20.046Z,34.90
2018-12-16T02:20:47.492Z,30.17
2018-12-16T02:23:14.959Z,22.90
2018-12-16T02:25:42.428Z,33.77
2018-12-16T02:28:09.909Z,29.77
2018-12-16T02:30:37.379Z,27.20
2018-12-16T02:33:04.825Z,30.53
2018-12-16T02:35:32.297Z,25.60
2018-12-16T02:37:59.753Z,21.63
2018-12-16T02:40:27.222Z,25.00
2018-12-16T02:42:54.675Z,20.70
2018-12-16T02:45:22.318Z,20.20
2018-12-16T02:47:49.816Z,21.73
2018-12-16T02:50:17.288Z,27.53
2018-12-16T02:52:44.806Z,29.73
2018-12-16T02:55:12.443Z,35.00
2018-12-16T02:57:39.910Z,23.83
2018-12-16T03:00:08.089Z,29.57
2018-12-16T03:02:35.608Z,30.27
2018-12-16T03:05:03.186Z,38.30
2018-12-16T03:07:30.665Z,36.87
2018-12-16T03:09:58.131Z,29.30
2018-12-16T03:12:25.608Z,26.37
2018-12-16T03:14:53.055Z,20.27
2018-12-16T03:17:20.528Z,38.07
2018-12-16T03:19:47.988Z,39.23
2018-12-16T03:22:15.463Z,33.37
2018-12-16T03:24:42.943Z,38.73
2018-12-16T03:27:10.523Z,20.13
2018-12-16T03:29:38.003Z,42.60
2018-12-16T03:32:05.484Z,40.83
2018-12-16T03:34:32.981Z,37.20
2018-12-16T03:37:00.426Z,36.97
2018-12-16T03:39:27.889Z,11.77
2018-12-16T03:41:55.418Z,12.73
2018-12-16T03:44:22.859Z,29.77
2018-12-16T03:46:50.320Z,25.90
2018-12-16T03:49:17.842Z,26.53
2018-12-16T03:51:45.296Z,11.37
2018-12-16T03:54:12.790Z,23.70
2018-12-16T03:56:40.244Z,22.77
2018-12-16T03:59:15.346Z,47.77
2018-12-16T04:01:43.003Z,35.60
2018-12-16T04:04:10.485Z,37.83
2018-12-16T04:06:37.964Z,36.87
2018-12-16T04:09:05.632Z,26.17
2018-12-16T04:11:33.142Z,34.07
2018-12-16T04:14:00.600Z,43.90
2018-12-16T04:16:28.089Z,39.13
2018-12-16T04:18:55.556Z,39.30
2018-12-16T04:21:23.021Z,37.03
2018-12-16T04:23:50.496Z,35.40
2018-12-16T04:26:17.959Z,23.23
2018-12-16T04:28:45.450Z,39.30
2018-12-16T04:31:13.066Z,35.77
2018-12-16T04:33:40.534Z,39.60
2018-12-16T04:36:08.010Z,51.30
2018-12-16T04:38:35.486Z,26.33
2018-12-16T04:41:02.969Z,27.23
2018-12-16T04:43:30.499Z,17.73
2018-12-16T04:45:57.991Z,22.20
2018-12-16T04:48:25.450Z,29.63
2018-12-16T04:50:52.987Z,39.90
2018-12-16T04:53:20.462Z,30.70
2018-12-16T04:55:47.928Z,28.50
2018-12-16T04:58:15.395Z,43.60
2018-12-16T05:00:42.858Z,39.23
2018-12-16T05:03:10.353Z,22.30
2018-12-16T05:05:37.810Z,36.10
2018-12-16T05:08:05.269Z,39.67
2018-12-16T05:10:32.747Z,24.63
2018-12-16T05:13:00.204Z,43.77
2018-12-16T05:15:27.713Z,35.60
2018-12-16T05:17:55.187Z,20.17
2018-12-16T05:20:22.652Z,48.33
2018-12-16T05:22:50.138Z,17.00
2018-12-16T05:25:17.600Z,30.83
2018-12-16T05:27:45.087Z,46.23
2018-12-16T05:30:12.638Z,39.00
2018-12-16T05:32:40.134Z,38.60
2018-12-16T05:35:07.674Z,44.10
2018-12-16T05:37:35.135Z,42.27
2018-12-16T05:40:02.652Z,41.70
2018-12-16T05:42:30.159Z,28.17
2018-12-16T05:44:57.623Z,41.40
2018-12-16T05:47:25.111Z,45.23
2018-12-16T05:49:52.820Z,43.33
2018-12-16T05:52:20.302Z,42.30
2018-12-16T05:54:47.811Z,45.30
2018-12-16T05:57:15.290Z,45.97
2018-12-16T05:59:42.835Z,42.47
2018-12-16T06:02:10.350Z,42.30
2018-12-16T06:04:37.863Z,34.90
2018-12-16T06:07:05.350Z,45.53
2018-12-16T06:09:32.859Z,34.73
2018-12-16T06:12:00.313Z,41.10
2018-12-16T06:14:27.874Z,37.63
2018-12-16T06:16:55.334Z,37.97
2018-12-16T06:19:22.794Z,42.00
2018-12-16T06:21:50.274Z,30.30
2018-12-16T06:24:17.738Z,44.87
2018-12-16T06:26:45.250Z,33.00
2018-12-16T06:29:12.727Z,45.40
2018-12-16T06:31:40.208Z,41.87
2018-12-16T06:34:07.755Z,50.80
2018-12-16T06:36:35.258Z,49.10
2018-12-16T06:39:03.393Z,37.73
2018-12-16T06:41:30.840Z,43.10
2018-12-16T06:43:58.310Z,44.63
2018-12-16T06:46:25.795Z,42.47
2018-12-16T06:48:53.252Z,33.47
2018-12-16T06:51:20.698Z,33.43
2018-12-16T06:53:48.186Z,40.00
2018-12-16T06:56:15.653Z,36.40
2018-12-16T06:58:43.134Z,10.20
2018-12-16T07:01:10.587Z,42.93
2018-12-16T07:03:38.057Z,45.43
2018-12-16T07:06:05.510Z,42.93
2018-12-16T07:08:32.990Z,48.13
2018-12-16T07:11:00.435Z,43.83
2018-12-16T07:13:27.976Z,37.57
2018-12-16T07:15:55.511Z,49.63
2018-12-16T07:18:22.963Z,48.83
2018-12-16T07:20:50.437Z,44.27
2018-12-16T07:23:17.925Z,49.93
2018-12-16T07:25:45.406Z,37.73
2018-12-16T07:28:12.920Z,52.17
2018-12-16T07:30:40.487Z,43.57
2018-12-16T07:33:07.950Z,47.40
2018-12-16T07:35:35.482Z,46.40
2018-12-16T07:38:02.946Z,39.70
2018-12-16T07:40:30.402Z,46.37
2018-12-16T07:42:57.893Z,33.67
2018-12-16T07:45:25.373Z,17.90
2018-12-16T07:47:52.862Z,44.27
2018-12-16T07:50:20.371Z,51.00
2018-12-16T07:52:47.901Z,39.07
2018-12-16T07:55:15.437Z,41.27
2018-12-16T07:57:42.891Z,50.47
2018-12-16T08:00:10.578Z,48.13
2018-12-16T08:02:38.091Z,47.33
2018-12-16T08:05:05.664Z,42.93
2018-12-16T08:07:33.138Z,52.23
2018-12-16T08:10:00.667Z,46.40
2018-12-16T08:12:28.131Z,43.27
2018-12-16T08:14:55.682Z,44.93
2018-12-16T08:17:23.168Z,50.87
2018-12-16T08:19:50.754Z,47.00
2018-12-16T08:22:18.218Z,42.60
2018-12-16T08:24:45.670Z,47.50
2018-12-16T08:27:13.204Z,46.63
2018-12-16T08:29:40.710Z,51.50
2018-12-16T08:32:08.193Z,59.37
2018-12-16T08:34:35.642Z,54.70
2018-12-16T08:37:03.217Z,48.70
2018-12-16T08:39:30.708Z,52.37
2018-12-16T08:41:58.200Z,48.93
2018-12-16T08:44:25.649Z,42.50
2018-12-16T08:46:53.187Z,48.77
2018-12-16T08:49:20.649Z,48.27
2018-12-16T08:51:48.163Z,51.43
2018-12-16T08:54:15.735Z,58.77
2018-12-16T08:56:43.185Z,52.13
2018-12-16T08:59:10.671Z,49.50
2018-12-16T09:01:38.121Z,56.47
2018-12-16T09:04:05.728Z,57.17
2018-12-16T09:06:33.208Z,41.17
2018-12-16T09:09:01.245Z,62.13
2018-12-16T09:11:28.775Z,57.23
2018-12-16T09:13:56.322Z,60.63
2018-12-16T09:16:23.841Z,50.07
2018-12-16T09:18:51.301Z,51.60
2018-12-16T09:21:18.779Z,69.70
2018-12-16T09:23:46.266Z,59.23
2018-12-16T09:26:13.749Z,55.70
2018-12-16T09:28:41.294Z,72.30
2018-12-16T09:31:08.806Z,49.90
2018-12-16T09:33:36.293Z,51.13
2018-12-16T09:36:03.790Z,74.07
2018-12-16T09:38:31.283Z,64.87
2018-12-16T09:40:58.757Z,58.30
2018-12-16T09:43:26.271Z,58.00
2018-12-16T09:45:53.718Z,74.93
2018-12-16T09:48:21.194Z,69.17
2018-12-16T09:50:48.694Z,56.67
2018-12-16T09:53:16.177Z,51.03
2018-12-16T09:55:43.662Z,70.67
2018-12-16T09:58:11.163Z,63.50
2018-12-16T10:00:38.666Z,79.10
2018-12-16T10:03:06.141Z,57.80
2018-12-16T10:05:33.646Z,62.83
2018-12-16T10:08:01.130Z,69.40
2018-12-16T10:10:28.619Z,92.10
2018-12-16T10:12:56.098Z,72.27
2018-12-16T10:15:23.553Z,69.70
2018-12-16T10:17:51.261Z,91.03
2018-12-16T10:20:18.832Z,83.83
2018-12-16T10:22:46.290Z,81.40
2018-12-16T10:25:13.741Z,78.40
2018-12-16T10:27:41.208Z,130.10
2018-12-16T10:30:09.365Z,96.77
2018-12-16T10:32:37.585Z,102.43
2018-12-16T10:35:05.561Z,77.50
2018-12-16T10:37:33.038Z,87.83
2018-12-16T10:40:00.518Z,66.47
2018-12-16T10:42:27.971Z,81.07
2018-12-16T10:44:55.444Z,92.90
2018-12-16T10:47:22.910Z,67.00
2018-12-16T10:49:50.403Z,96.40
2018-12-16T10:52:17.888Z,87.37
2018-12-16T10:54:45.374Z,100.83
2018-12-16T10:57:12.838Z,109.80
2018-12-16T10:59:40.309Z,60.83
2018-12-16T11:02:07.834Z,88.50
2018-12-16T11:04:35.310Z,91.87
2018-12-16T11:07:02.794Z,111.40
2018-12-16T11:09:30.250Z,56.27
2018-12-16T11:11:57.730Z,97.20
2018-12-16T11:14:25.224Z,89.00
2018-12-16T11:16:52.682Z,86.97
2018-12-16T11:19:20.247Z,79.93
2018-12-16T11:21:47.724Z,115.10
2018-12-16T11:24:15.197Z,77.17
2018-12-16T11:26:42.706Z,102.17
2018-12-16T11:29:10.194Z,103.47
2018-12-16T11:31:37.687Z,102.47
2018-12-16T11:34:06.066Z,112.07
2018-12-16T11:36:33.526Z,110.43
2018-12-16T11:39:01.107Z,111.07
2018-12-16T11:41:28.590Z,140.90
2018-12-16T11:43:56.039Z,80.47
2018-12-16T11:46:23.522Z,131.87
2018-12-16T11:48:50.978Z,117.73
2018-12-16T11:51:18.442Z,168.63
2018-12-16T11:53:45.921Z,151.80
2018-12-16T11:56:13.909Z,124.20
2018-12-16T11:58:41.488Z,89.47
2018-12-16T12:01:09.057Z,113.13
2018-12-16T12:03:36.548Z,146.03
2018-12-16T12:06:04.108Z,147.27
2018-12-16T12:08:31.598Z,112.97
2018-12-16T12:10:59.061Z,176.97
2018-12-16T12:13:26.557Z,78.17
2018-12-16T12:15:54.106Z,75.10
2018-12-16T12:18:21.603Z,109.73
2018-12-16T12:20:49.133Z,103.70
2018-12-16T12:23:16.636Z,109.30
2018-12-16T12:25:44.083Z,68.37
2018-12-16T12:28:11.601Z,162.13
2018-12-16T12:30:39.058Z,87.83
2018-12-16T12:33:06.546Z,103.40
2018-12-16T12:35:34.006Z,125.87
2018-12-16T12:38:01.475Z,125.80
2018-12-16T12:40:28.942Z,138.20
2018-12-16T12:42:56.417Z,89.10
2018-12-16T12:45:23.902Z,152.23
2018-12-16T12:47:51.357Z,126.83
2018-12-16T12:50:18.846Z,221.47
2018-12-16T12:52:46.337Z,140.07
2018-12-16T12:55:13.879Z,79.13
2018-12-16T12:57:41.338Z,108.47
2018-12-16T13:00:11.915Z,107.60
2018-12-16T13:02:39.409Z,110.57
2018-12-16T13:05:06.934Z,117.47
2018-12-16T13:07:34.394Z,100.50
2018-12-16T13:10:01.935Z,112.83
2018-12-16T13:12:29.495Z,108.40
2018-12-16T13:14:56.982Z,155.80
2018-12-16T13:17:24.465Z,92.53
2018-12-16T13:19:51.918Z,87.33
2018-12-16T13:22:19.406Z,70.13
2018-12-16T13:24:58.734Z,63.87
2018-12-16T13:27:26.246Z,98.83
2018-12-16T13:29:53.725Z,130.30
2018-12-16T13:32:21.185Z,118.33
2018-12-16T13:34:48.662Z,108.27
2018-12-16T13:37:16.150Z,191.63
2018-12-16T13:39:43.641Z,139.43
2018-12-16T13:42:11.090Z,82.33
2018-12-16T13:44:38.584Z,149.00
2018-12-16T13:47:06.035Z,156.57
2018-12-16T13:49:33.498Z,214.40
2018-12-16T13:52:00.959Z,264.07
2018-12-16T13:54:28.483Z,208.90
2018-12-16T13:56:55.953Z,160.27
2018-12-16T13:59:23.456Z,166.20
2018-12-16T14:01:50.906Z,265.77
2018-12-16T14:04:18.379Z,68.30
2018-12-16T14:06:45.916Z,106.80
2018-12-16T14:09:13.367Z,85.50
2018-12-16T14:11:40.842Z,83.63
2018-12-16T14:14:08.289Z,79.77
2018-12-16T14:16:35.763Z,57.80
2018-12-16T14:19:03.273Z,108.53
2018-12-16T14:21:30.767Z,94.27
2018-12-16T14:23:58.222Z,87.03
2018-12-16T14:26:25.685Z,89.47
2018-12-16T14:28:53.241Z,55.47
2018-12-16T14:31:20.750Z,54.77
2018-12-16T14:33:48.221Z,84.47
2018-12-16T14:36:15.747Z,98.07
2018-12-16T14:38:43.207Z,73.93
2018-12-16T14:41:10.683Z,88.67
2018-12-16T14:43:38.150Z,83.80
2018-12-16T14:46:05.615Z,165.33
2018-12-16T14:48:33.081Z,63.40
2018-12-16T14:51:00.558Z,46.97
2018-12-16T14:53:28.078Z,77.50
2018-12-16T14:55:55.626Z,77.10
2018-12-16T14:58:23.149Z,96.70
2018-12-16T15:00:50.697Z,77.70
2018-12-16T15:03:18.229Z,63.30
2018-12-16T15:05:45.753Z,63.23
2018-12-16T15:08:13.202Z,70.20
2018-12-16T15:10:40.674Z,131.57
2018-12-16T15:13:08.402Z,58.93
2018-12-16T15:15:35.855Z,118.03
2018-12-16T15:18:03.382Z,89.80
2018-12-16T15:20:30.837Z,135.83
2018-12-16T15:22:58.330Z,145.40
2018-12-16T15:25:25.785Z,128.00
2018-12-16T15:27:53.236Z,123.53
2018-12-16T15:30:20.769Z,57.10
2018-12-16T15:32:48.213Z,86.97
2018-12-16T15:35:15.774Z,83.97
2018-12-16T15:37:43.269Z,171.60
2018-12-16T15:40:10.728Z,142.90
2018-12-16T15:42:38.186Z,205.00
2018-12-16T15:45:07.470Z,109.20
2018-12-16T15:47:34.930Z,180.63
2018-12-16T15:50:02.517Z,210.43
2018-12-16T15:52:29.982Z,148.27
2018-12-16T15:54:57.478Z,212.03
2018-12-16T15:57:25.000Z,276.13
2018-12-16T15:59:52.461Z,208.47
2018-12-16T16:02:19.930Z,350.13
2018-12-16T16:04:47.516Z,241.83
2018-12-16T16:07:15.037Z,147.47
2018-12-16T16:09:42.526Z,183.00
2018-12-16T16:12:10.010Z,273.47
2018-12-16T16:14:37.486Z,281.63
2018-12-16T16:17:04.962Z,90.97
2018-12-16T16:19:32.454Z,173.07
2018-12-16T16:22:00.026Z,154.27
2018-12-16T16:24:27.479Z,242.20
2018-12-16T16:26:55.047Z,96.87
2018-12-16T16:29:22.554Z,233.77
2018-12-16T16:31:50.042Z,233.10
2018-12-16T16:34:17.519Z,117.60
2018-12-16T16:36:45.001Z,81.80
2018-12-16T16:39:12.507Z,145.07
2018-12-16T16:41:39.970Z,312.30
2018-12-16T16:44:07.478Z,182.30
2018-12-16T16:46:34.953Z,301.07
2018-12-16T16:49:02.431Z,153.27
2018-12-16T16:51:29.883Z,250.10
2018-12-16T16:53:57.362Z,180.77
2018-12-16T16:56:24.904Z,182.57
2018-12-16T16:58:52.379Z,140.27
2018-12-16T17:01:19.834Z,272.77
2018-12-16T17:03:47.343Z,204.03
2018-12-16T17:06:14.830Z,182.93
2018-12-16T17:08:42.290Z,132.27
2018-12-16T17:11:09.970Z,224.83
2018-12-16T17:13:37.429Z,302.00
2018-12-16T17:16:05.038Z,212.90
2018-12-16T17:18:32.493Z,359.07
2018-12-16T17:20:59.966Z,124.10
2018-12-16T17:23:27.449Z,275.40
2018-12-16T17:25:54.910Z,239.53
2018-12-16T17:28:22.394Z,261.27
2018-12-16T17:30:49.865Z,223.10
2018-12-16T17:33:17.346Z,121.63
2018-12-16T17:35:44.841Z,239.57
2018-12-16T17:38:12.298Z,121.60
2018-12-16T17:40:39.778Z,179.87
2018-12-16T17:43:07.232Z,159.70
2018-12-16T17:45:34.707Z,125.37
2018-12-16T17:48:02.300Z,173.50
2018-12-16T17:50:29.773Z,121.83
2018-12-16T17:52:57.234Z,97.83
2018-12-16T17:55:24.710Z,137.70
2018-12-16T17:57:52.174Z,134.83
2018-12-16T18:00:19.842Z,65.73
2018-12-16T18:02:47.292Z,98.40
2018-12-16T18:05:14.835Z,111.00
2018-12-16T18:07:43.202Z,113.63
2018-12-16T18:10:10.681Z,70.03
2018-12-16T18:12:38.154Z,87.43
2018-12-16T18:15:07.663Z,87.23
2018-12-16T18:17:35.243Z,111.03
2018-12-16T18:20:03.254Z,89.80
2018-12-16T18:22:30.736Z,78.47
2018-12-16T18:24:58.369Z,85.80
2018-12-16T18:27:25.843Z,107.30
2018-12-16T18:29:53.306Z,51.00
2018-12-16T18:32:20.773Z,76.30
2018-12-16T18:34:49.827Z,76.67
2018-12-16T18:37:17.509Z,55.87
2018-12-16T18:39:44.973Z,66.80
2018-12-16T18:42:12.485Z,52.17
2018-12-16T18:44:40.723Z,63.70
2018-12-16T18:47:08.207Z,60.83
2018-12-16T18:49:35.665Z,53.80
2018-12-16T18:52:03.143Z,60.17
2018-12-16T18:54:30.591Z,53.43
2018-12-16T18:56:58.067Z,84.70
2018-12-16T18:59:25.656Z,54.80
2018-12-16T19:01:53.144Z,35.63
2018-12-16T19:04:21.290Z,42.23
2018-12-16T19:06:48.741Z,49.93
2018-12-16T19:09:16.227Z,31.03
2018-12-16T19:11:43.736Z,43.93
2018-12-16T19:14:11.211Z,48.40
2018-12-16T19:16:38.715Z,59.30
2018-12-16T19:19:06.541Z,67.20
2018-12-16T19:21:34.053Z,66.47
2018-12-16T19:24:01.538Z,41.93
2018-12-16T19:26:28.988Z,56.10
2018-12-16T19:28:56.517Z,50.23
2018-12-16T19:31:23.968Z,81.87
2018-12-16T19:33:51.426Z,69.57
2018-12-16T19:36:18.979Z,37.50
2018-12-16T19:38:46.446Z,45.27
2018-12-16T19:41:13.905Z,43.60
2018-12-16T19:43:41.369Z,52.83
2018-12-16T19:46:08.895Z,78.90
2018-12-16T19:48:36.434Z,87.80
2018-12-16T19:51:03.977Z,53.40
2018-12-16T19:53:31.458Z,81.27
2018-12-16T19:55:58.983Z,83.33
2018-12-16T19:58:26.811Z,68.13
2018-12-16T20:00:54.330Z,48.17
2018-12-16T20:03:21.819Z,77.93
2018-12-16T20:05:55.044Z,36.80
2018-12-16T20:08:22.622Z,63.00
2018-12-16T20:10:51.688Z,52.87
2018-12-16T20:13:19.424Z,61.57
2018-12-16T20:15:47.064Z,79.43
2018-12-16T20:18:14.680Z,59.87
2018-12-16T20:20:42.438Z,46.13
2018-12-16T20:23:10.104Z,52.47
2018-12-16T20:25:38.297Z,73.77
2018-12-16T20:28:05.999Z,99.53
2018-12-16T20:30:33.759Z,59.33
2018-12-16T20:33:01.644Z,131.23
2018-12-16T20:35:29.788Z,83.37
2018-12-16T20:37:57.791Z,152.23
2018-12-16T20:40:26.012Z,80.90
2018-12-16T20:42:54.172Z,89.40
2018-12-16T20:45:21.887Z,71.83
2018-12-16T20:47:49.701Z,77.70
2018-12-16T20:50:17.443Z,87.53
2018-12-16T20:52:45.275Z,133.33
2018-12-16T20:55:13.124Z,196.77
2018-12-16T20:57:41.706Z,154.23
2018-12-16T21:00:09.580Z,86.43
2018-12-16T21:02:37.336Z,71.53
2018-12-16T21:05:05.443Z,85.70
2018-12-16T21:07:33.755Z,169.37
2018-12-16T21:10:01.332Z,105.87
2018-12-16T21:12:34.799Z,138.03
2018-12-16T21:15:08.062Z,85.77
2018-12-16T21:17:41.359Z,122.47
2018-12-16T21:20:08.949Z,91.00
2018-12-16T21:22:36.517Z,32.37
2018-12-16T21:25:04.773Z,63.93
2018-12-16T21:27:33.086Z,52.37
2018-12-16T21:30:00.533Z,64.90
2018-12-16T21:32:28.113Z,68.00
2018-12-16T21:34:55.581Z,64.03
2018-12-16T21:37:23.057Z,107.07
2018-12-16T21:39:50.572Z,164.40
2018-12-16T21:42:18.051Z,48.43
2018-12-16T21:44:45.510Z,65.80
2018-12-16T21:47:13.075Z,166.03
2018-12-16T21:49:40.554Z,126.23
2018-12-16T21:52:08.044Z,115.13
2018-12-16T21:54:35.599Z,108.53
2018-12-16T21:57:03.131Z,227.80
2018-12-16T21:59:30.953Z,232.03
2018-12-16T22:01:58.520Z,72.57
2018-12-16T22:04:25.966Z,118.67
2018-12-16T22:06:53.424Z,154.77
2018-12-16T22:09:21.149Z,142.23
2018-12-16T22:11:48.709Z,133.87
2018-12-16T22:14:16.181Z,64.97
2018-12-16T22:16:43.634Z,135.67
2018-12-16T22:19:11.106Z,120.60
2018-12-16T22:21:38.558Z,155.93
2018-12-16T22:24:06.030Z,189.87
2018-12-16T22:26:33.510Z,111.93
2018-12-16T22:29:00.985Z,193.10
2018-12-16T22:31:28.464Z,217.70
2018-12-16T22:33:55.943Z,142.13
2018-12-16T22:36:23.395Z,178.50
2018-12-16T22:38:50.863Z,165.70
2018-12-16T22:41:18.342Z,182.70
2018-12-16T22:43:46.122Z,173.30
2018-12-16T22:46:13.835Z,156.70
2018-12-16T22:48:42.325Z,67.30
2018-12-16T22:51:10.053Z,37.43
2018-12-16T22:53:37.538Z,81.03
2018-12-16T22:56:05.025Z,78.23
2018-12-16T22:58:32.482Z,61.37
2018-12-16T23:03:50.907Z,49.00
2018-12-16T23:06:18.410Z,61.27
2018-12-16T23:08:45.884Z,89.57
2018-12-16T23:11:13.343Z,136.50
2018-12-16T23:13:40.897Z,70.77
2018-12-16T23:16:08.390Z,105.57
2018-12-16T23:18:35.860Z,99.17
2018-12-16T23:21:03.328Z,70.80
2018-12-16T23:23:30.801Z,46.87
2018-12-16T23:25:58.274Z,58.50
2018-12-16T23:28:25.778Z,25.07
2018-12-16T23:30:53.253Z,54.67
2018-12-16T23:33:20.722Z,56.50
2018-12-16T23:35:48.281Z,71.73
2018-12-16T23:38:15.753Z,44.90
2018-12-16T23:40:43.273Z,35.07
2018-12-16T23:43:10.754Z,50.47
2018-12-16T23:45:38.223Z,52.53
2018-12-16T23:48:05.683Z,41.23
2018-12-16T23:50:33.220Z,58.07
2018-12-16T23:53:00.675Z,59.97
2018-12-16T23:55:28.146Z,56.87
2018-12-16T23:58:00.973Z,61.43
